sensor_id;sensor_type;location;lat;lon;timestamp;pressure;altitude;pressure_sealevel;temperature;humidity
44044;BME280;29709;52.396;16.796;2023-04-19T00:02:34;102509.51;;;9.36;54.78
44044;BME280;29709;52.396;16.796;2023-04-19T00:05:47;102505.77;;;9.37;55.86
44044;BME280;29709;52.396;16.796;2023-04-19T00:09:00;102501.52;;;9.33;55.90
44044;BME280;29709;52.396;16.796;2023-04-19T00:12:13;102508.01;;;9.32;55.35
44044;BME280;29709;52.396;16.796;2023-04-19T00:15:27;102500.72;;;9.20;55.95
44044;BME280;29709;52.396;16.796;2023-04-19T00:18:40;102501.19;;;9.14;56.17
44044;BME280;29709;52.396;16.796;2023-04-19T00:21:54;102496.70;;;9.13;55.32
44044;BME280;29709;52.396;16.796;2023-04-19T00:25:08;102484.42;;;9.06;54.79
44044;BME280;29709;52.396;16.796;2023-04-19T00:28:21;102489.54;;;8.99;53.31
44044;BME280;29709;52.396;16.796;2023-04-19T00:31:34;102483.12;;;8.87;52.44
44044;BME280;29709;52.396;16.796;2023-04-19T00:34:47;102479.64;;;8.73;52.25
44044;BME280;29709;52.396;16.796;2023-04-19T00:38:00;102470.36;;;8.62;52.57
44044;BME280;29709;52.396;16.796;2023-04-19T00:41:15;102472.46;;;8.59;52.44
44044;BME280;29709;52.396;16.796;2023-04-19T00:44:28;102475.78;;;8.51;53.33
44044;BME280;29709;52.396;16.796;2023-04-19T00:47:41;102469.55;;;8.49;53.58
44044;BME280;29709;52.396;16.796;2023-04-19T00:50:55;102466.60;;;8.39;53.59
44044;BME280;29709;52.396;16.796;2023-04-19T00:54:09;102458.38;;;8.27;53.75
44044;BME280;29709;52.396;16.796;2023-04-19T00:57:23;102456.20;;;8.19;53.75
44044;BME280;29709;52.396;16.796;2023-04-19T01:00:37;102446.27;;;8.05;53.81
44044;BME280;29709;52.396;16.796;2023-04-19T01:03:50;102446.18;;;7.94;54.28
44044;BME280;29709;52.396;16.796;2023-04-19T01:07:04;102439.50;;;7.86;54.26
44044;BME280;29709;52.396;16.796;2023-04-19T01:10:17;102438.19;;;7.78;54.62
44044;BME280;29709;52.396;16.796;2023-04-19T01:13:31;102447.84;;;7.71;55.24
44044;BME280;29709;52.396;16.796;2023-04-19T01:16:44;102433.83;;;7.63;55.27
44044;BME280;29709;52.396;16.796;2023-04-19T01:20:01;102436.63;;;7.49;55.49
44044;BME280;29709;52.396;16.796;2023-04-19T01:23:15;102443.86;;;7.37;55.71
44044;BME280;29709;52.396;16.796;2023-04-19T01:26:29;102441.11;;;7.24;55.96
44044;BME280;29709;52.396;16.796;2023-04-19T01:29:42;102434.52;;;7.14;55.96
44044;BME280;29709;52.396;16.796;2023-04-19T01:32:56;102437.67;;;7.08;56.12
44044;BME280;29709;52.396;16.796;2023-04-19T01:36:09;102429.26;;;6.99;56.52
44044;BME280;29709;52.396;16.796;2023-04-19T01:39:24;102429.55;;;6.94;56.82
44044;BME280;29709;52.396;16.796;2023-04-19T01:42:38;102431.53;;;6.92;57.46
44044;BME280;29709;52.396;16.796;2023-04-19T01:45:52;102427.27;;;6.88;57.68
44044;BME280;29709;52.396;16.796;2023-04-19T01:49:05;102425.91;;;6.81;58.18
44044;BME280;29709;52.396;16.796;2023-04-19T01:52:18;102421.95;;;6.72;58.43
44044;BME280;29709;52.396;16.796;2023-04-19T01:55:33;102422.34;;;6.66;58.51
44044;BME280;29709;52.396;16.796;2023-04-19T01:58:46;102426.49;;;6.59;58.61
44044;BME280;29709;52.396;16.796;2023-04-19T02:02:00;102423.89;;;6.43;59.16
44044;BME280;29709;52.396;16.796;2023-04-19T02:05:13;102420.49;;;6.40;59.42
44044;BME280;29709;52.396;16.796;2023-04-19T02:08:26;102414.77;;;6.30;59.90
44044;BME280;29709;52.396;16.796;2023-04-19T02:11:40;102406.41;;;6.19;61.03
44044;BME280;29709;52.396;16.796;2023-04-19T02:14:57;102408.88;;;6.09;61.00
44044;BME280;29709;52.396;16.796;2023-04-19T02:18:11;102409.57;;;5.98;61.46
44044;BME280;29709;52.396;16.796;2023-04-19T02:21:25;102402.82;;;5.90;61.47
44044;BME280;29709;52.396;16.796;2023-04-19T02:24:39;102405.36;;;5.78;61.87
44044;BME280;29709;52.396;16.796;2023-04-19T02:27:53;102402.13;;;5.72;62.51
44044;BME280;29709;52.396;16.796;2023-04-19T02:31:06;102396.11;;;5.67;62.36
44044;BME280;29709;52.396;16.796;2023-04-19T02:34:20;102398.16;;;5.63;62.65
44044;BME280;29709;52.396;16.796;2023-04-19T02:37:33;102394.83;;;5.58;63.07
44044;BME280;29709;52.396;16.796;2023-04-19T02:40:46;102392.42;;;5.54;63.41
44044;BME280;29709;52.396;16.796;2023-04-19T02:43:59;102389.39;;;5.44;63.95
44044;BME280;29709;52.396;16.796;2023-04-19T02:47:12;102383.73;;;5.33;64.61
44044;BME280;29709;52.396;16.796;2023-04-19T02:50:26;102384.41;;;5.22;64.82
44044;BME280;29709;52.396;16.796;2023-04-19T02:53:39;102384.67;;;5.17;64.88
44044;BME280;29709;52.396;16.796;2023-04-19T02:56:52;102380.49;;;5.12;65.74
44044;BME280;29709;52.396;16.796;2023-04-19T03:00:06;102371.70;;;5.07;65.66
44044;BME280;29709;52.396;16.796;2023-04-19T03:03:20;102374.89;;;4.99;66.12
44044;BME280;29709;52.396;16.796;2023-04-19T03:06:33;102360.79;;;4.92;66.35
44044;BME280;29709;52.396;16.796;2023-04-19T03:09:48;102358.42;;;4.86;67.05
44044;BME280;29709;52.396;16.796;2023-04-19T03:13:01;102355.22;;;4.80;67.05
44044;BME280;29709;52.396;16.796;2023-04-19T03:16:14;102347.92;;;4.80;67.51
44044;BME280;29709;52.396;16.796;2023-04-19T03:19:28;102347.05;;;4.80;67.35
44044;BME280;29709;52.396;16.796;2023-04-19T03:22:41;102346.95;;;4.81;67.65
44044;BME280;29709;52.396;16.796;2023-04-19T03:25:54;102345.10;;;4.82;67.68
44044;BME280;29709;52.396;16.796;2023-04-19T03:29:09;102353.53;;;4.77;67.53
44044;BME280;29709;52.396;16.796;2023-04-19T03:32:22;102348.28;;;4.74;67.69
44044;BME280;29709;52.396;16.796;2023-04-19T03:35:35;102347.08;;;4.64;68.18
44044;BME280;29709;52.396;16.796;2023-04-19T03:38:48;102345.69;;;4.57;68.63
44044;BME280;29709;52.396;16.796;2023-04-19T03:42:01;102342.80;;;4.60;68.21
44044;BME280;29709;52.396;16.796;2023-04-19T03:45:15;102340.96;;;4.60;68.22
44044;BME280;29709;52.396;16.796;2023-04-19T03:48:28;102339.55;;;4.53;68.50
44044;BME280;29709;52.396;16.796;2023-04-19T03:51:41;102342.05;;;4.42;68.51
44044;BME280;29709;52.396;16.796;2023-04-19T03:54:54;102328.10;;;4.32;68.85
44044;BME280;29709;52.396;16.796;2023-04-19T03:58:07;102328.54;;;4.25;69.44
44044;BME280;29709;52.396;16.796;2023-04-19T04:01:22;102319.79;;;4.20;69.64
44044;BME280;29709;52.396;16.796;2023-04-19T04:04:36;102319.69;;;4.21;70.04
44044;BME280;29709;52.396;16.796;2023-04-19T04:07:49;102321.64;;;4.19;70.42
44044;BME280;29709;52.396;16.796;2023-04-19T04:11:02;102329.71;;;4.21;70.86
44044;BME280;29709;52.396;16.796;2023-04-19T04:14:15;102319.79;;;4.20;70.84
44044;BME280;29709;52.396;16.796;2023-04-19T04:17:28;102322.42;;;4.21;70.95
44044;BME280;29709;52.396;16.796;2023-04-19T04:20:43;102316.78;;;4.24;71.47
44044;BME280;29709;52.396;16.796;2023-04-19T04:23:56;102317.56;;;4.26;71.82
44044;BME280;29709;52.396;16.796;2023-04-19T04:27:13;102319.06;;;4.32;71.54
44044;BME280;29709;52.396;16.796;2023-04-19T04:30:32;102317.12;;;4.34;71.96
44044;BME280;29709;52.396;16.796;2023-04-19T04:33:46;102312.29;;;4.39;72.25
44044;BME280;29709;52.396;16.796;2023-04-19T04:36:59;102310.16;;;4.44;71.90
44044;BME280;29709;52.396;16.796;2023-04-19T04:40:13;102301.44;;;4.53;71.98
44044;BME280;29709;52.396;16.796;2023-04-19T04:43:27;102299.29;;;4.58;72.37
44044;BME280;29709;52.396;16.796;2023-04-19T04:46:41;102302.31;;;4.54;72.82
44044;BME280;29709;52.396;16.796;2023-04-19T04:49:54;102296.52;;;4.60;72.57
44044;BME280;29709;52.396;16.796;2023-04-19T04:53:08;102289.02;;;4.63;73.09
44044;BME280;29709;52.396;16.796;2023-04-19T04:56:24;102285.13;;;4.68;73.14
44044;BME280;29709;52.396;16.796;2023-04-19T04:59:39;102285.74;;;4.73;73.40
44044;BME280;29709;52.396;16.796;2023-04-19T05:02:52;102291.59;;;4.81;73.19
44044;BME280;29709;52.396;16.796;2023-04-19T05:06:05;102280.30;;;4.87;73.99
44044;BME280;29709;52.396;16.796;2023-04-19T05:09:19;102285.09;;;4.98;73.63
44044;BME280;29709;52.396;16.796;2023-04-19T05:12:33;102285.28;;;5.09;73.40
44044;BME280;29709;52.396;16.796;2023-04-19T05:15:46;102284.70;;;5.18;73.36
44044;BME280;29709;52.396;16.796;2023-04-19T05:18:59;102284.22;;;5.26;73.13
44044;BME280;29709;52.396;16.796;2023-04-19T05:22:12;102272.93;;;5.32;73.10
44044;BME280;29709;52.396;16.796;2023-04-19T05:25:26;102266.69;;;5.44;73.11
44044;BME280;29709;52.396;16.796;2023-04-19T05:28:40;102265.11;;;5.54;72.50
44044;BME280;29709;52.396;16.796;2023-04-19T05:31:53;102259.13;;;5.62;72.81
44044;BME280;29709;52.396;16.796;2023-04-19T05:35:11;102261.37;;;5.69;73.09
44044;BME280;29709;52.396;16.796;2023-04-19T05:38:25;102270.41;;;5.84;72.85
44044;BME280;29709;52.396;16.796;2023-04-19T05:41:38;102269.32;;;5.87;72.92
44044;BME280;29709;52.396;16.796;2023-04-19T05:44:51;102256.73;;;5.98;72.59
44044;BME280;29709;52.396;16.796;2023-04-19T05:48:04;102270.86;;;6.05;72.72
44044;BME280;29709;52.396;16.796;2023-04-19T05:51:21;102253.83;;;6.14;72.44
44044;BME280;29709;52.396;16.796;2023-04-19T05:54:35;102251.68;;;6.19;72.30
44044;BME280;29709;52.396;16.796;2023-04-19T05:57:49;102262.38;;;6.22;72.67
44044;BME280;29709;52.396;16.796;2023-04-19T06:01:02;102260.14;;;6.42;71.58
44044;BME280;29709;52.396;16.796;2023-04-19T06:04:16;102249.34;;;6.40;72.29
44044;BME280;29709;52.396;16.796;2023-04-19T06:07:31;102251.42;;;6.49;72.41
44044;BME280;29709;52.396;16.796;2023-04-19T06:10:45;102241.49;;;6.61;72.24
44044;BME280;29709;52.396;16.796;2023-04-19T06:14:01;102242.70;;;6.70;71.59
44044;BME280;29709;52.396;16.796;2023-04-19T06:17:14;102247.42;;;6.68;71.74
44044;BME280;29709;52.396;16.796;2023-04-19T06:20:29;102254.39;;;6.72;71.57
44044;BME280;29709;52.396;16.796;2023-04-19T06:23:42;102254.52;;;6.70;71.92
44044;BME280;29709;52.396;16.796;2023-04-19T06:26:56;102248.18;;;6.70;71.43
44044;BME280;29709;52.396;16.796;2023-04-19T06:30:10;102270.03;;;6.70;71.38
44044;BME280;29709;52.396;16.796;2023-04-19T06:33:23;102277.36;;;6.69;71.64
44044;BME280;29709;52.396;16.796;2023-04-19T06:36:36;102273.76;;;6.69;71.83
44044;BME280;29709;52.396;16.796;2023-04-19T06:39:49;102259.98;;;6.70;71.91
44044;BME280;29709;52.396;16.796;2023-04-19T06:43:03;102275.62;;;6.68;72.16
44044;BME280;29709;52.396;16.796;2023-04-19T06:46:16;102271.02;;;6.69;72.24
44044;BME280;29709;52.396;16.796;2023-04-19T06:49:30;102270.22;;;6.66;72.91
44044;BME280;29709;52.396;16.796;2023-04-19T06:52:43;102268.47;;;6.53;75.04
44044;BME280;29709;52.396;16.796;2023-04-19T06:55:58;102266.45;;;6.29;77.21
44044;BME280;29709;52.396;16.796;2023-04-19T06:59:18;102251.97;;;6.15;78.45
44044;BME280;29709;52.396;16.796;2023-04-19T07:02:32;102262.66;;;6.05;79.57
44044;BME280;29709;52.396;16.796;2023-04-19T07:05:45;102250.30;;;5.99;79.67
44044;BME280;29709;52.396;16.796;2023-04-19T07:08:58;102246.70;;;5.99;80.35
44044;BME280;29709;52.396;16.796;2023-04-19T07:12:12;102248.45;;;6.00;80.65
44044;BME280;29709;52.396;16.796;2023-04-19T07:15:25;102250.55;;;6.09;80.97
44044;BME280;29709;52.396;16.796;2023-04-19T07:18:38;102255.65;;;6.28;81.29
44044;BME280;29709;52.396;16.796;2023-04-19T07:21:52;102247.71;;;6.50;81.68
44044;BME280;29709;52.396;16.796;2023-04-19T07:25:05;102239.11;;;6.69;81.91
44044;BME280;29709;52.396;16.796;2023-04-19T07:28:19;102233.20;;;6.75;82.15
44044;BME280;29709;52.396;16.796;2023-04-19T07:31:32;102243.24;;;6.87;82.62
44044;BME280;29709;52.396;16.796;2023-04-19T07:34:45;102247.19;;;6.96;81.21
44044;BME280;29709;52.396;16.796;2023-04-19T07:37:59;102266.55;;;6.93;81.36
44044;BME280;29709;52.396;16.796;2023-04-19T07:41:12;102260.20;;;6.92;81.25
44044;BME280;29709;52.396;16.796;2023-04-19T07:44:26;102247.42;;;6.80;80.79
44044;BME280;29709;52.396;16.796;2023-04-19T07:47:39;102236.26;;;6.71;81.47
44044;BME280;29709;52.396;16.796;2023-04-19T07:50:52;102226.66;;;6.78;81.60
44044;BME280;29709;52.396;16.796;2023-04-19T07:54:05;102218.23;;;6.93;81.60
44044;BME280;29709;52.396;16.796;2023-04-19T07:57:19;102225.65;;;7.04;81.20
44044;BME280;29709;52.396;16.796;2023-04-19T08:00:33;102260.20;;;7.05;80.79
44044;BME280;29709;52.396;16.796;2023-04-19T08:03:49;102256.91;;;6.87;80.68
44044;BME280;29709;52.396;16.796;2023-04-19T08:07:03;102251.66;;;6.72;81.07
44044;BME280;29709;52.396;16.796;2023-04-19T08:10:17;102249.93;;;6.71;81.39
44044;BME280;29709;52.396;16.796;2023-04-19T08:13:30;102245.44;;;6.70;81.57
44044;BME280;29709;52.396;16.796;2023-04-19T08:16:43;102245.55;;;6.68;81.75
44044;BME280;29709;52.396;16.796;2023-04-19T08:19:57;102247.08;;;6.72;82.31
44044;BME280;29709;52.396;16.796;2023-04-19T08:23:10;102238.77;;;6.74;82.47
44044;BME280;29709;52.396;16.796;2023-04-19T08:26:24;102258.87;;;6.60;81.58
44044;BME280;29709;52.396;16.796;2023-04-19T08:29:38;102250.44;;;6.50;81.88
44044;BME280;29709;52.396;16.796;2023-04-19T08:32:52;102246.38;;;6.43;81.01
44044;BME280;29709;52.396;16.796;2023-04-19T08:36:06;102245.27;;;6.33;81.94
44044;BME280;29709;52.396;16.796;2023-04-19T08:39:19;102250.18;;;6.28;82.75
44044;BME280;29709;52.396;16.796;2023-04-19T08:42:33;102241.52;;;6.21;83.21
44044;BME280;29709;52.396;16.796;2023-04-19T08:45:49;102244.77;;;6.14;83.27
44044;BME280;29709;52.396;16.796;2023-04-19T08:49:07;102241.60;;;6.07;82.28
44044;BME280;29709;52.396;16.796;2023-04-19T08:52:23;102221.55;;;5.94;82.12
44044;BME280;29709;52.396;16.796;2023-04-19T08:55:37;102214.45;;;5.91;82.88
44044;BME280;29709;52.396;16.796;2023-04-19T08:58:52;102213.87;;;5.86;82.20
44044;BME280;29709;52.396;16.796;2023-04-19T09:02:06;102213.83;;;5.73;82.72
44044;BME280;29709;52.396;16.796;2023-04-19T09:05:19;102210.84;;;5.64;82.76
44044;BME280;29709;52.396;16.796;2023-04-19T09:08:33;102209.27;;;5.60;82.90
44044;BME280;29709;52.396;16.796;2023-04-19T09:11:46;102194.32;;;5.53;83.39
44044;BME280;29709;52.396;16.796;2023-04-19T09:15:00;102194.32;;;5.53;83.73
44044;BME280;29709;52.396;16.796;2023-04-19T09:18:16;102188.17;;;5.49;83.48
44044;BME280;29709;52.396;16.796;2023-04-19T09:21:32;102172.02;;;5.46;84.23
44044;BME280;29709;52.396;16.796;2023-04-19T09:24:45;102180.76;;;5.51;83.96
44044;BME280;29709;52.396;16.796;2023-04-19T09:31:26;102154.94;;;5.57;85.24
44044;BME280;29709;52.396;16.796;2023-04-19T09:38:04;102156.47;;;5.61;84.86
44044;BME280;29709;52.396;16.796;2023-04-19T09:41:17;102156.07;;;5.67;85.45
44044;BME280;29709;52.396;16.796;2023-04-19T09:44:30;102156.63;;;5.72;86.00
44044;BME280;29709;52.396;16.796;2023-04-19T09:51:10;102156.77;;;5.83;86.21
44044;BME280;29709;52.396;16.796;2023-04-19T09:54:24;102160.08;;;5.88;86.14
44044;BME280;29709;52.396;16.796;2023-04-19T09:57:44;102158.71;;;5.95;86.26
44044;BME280;29709;52.396;16.796;2023-04-19T10:00:58;102152.82;;;6.01;86.91
44044;BME280;29709;52.396;16.796;2023-04-19T10:04:16;102156.88;;;6.08;86.71
44044;BME280;29709;52.396;16.796;2023-04-19T10:07:36;102152.64;;;6.17;86.40
44044;BME280;29709;52.396;16.796;2023-04-19T10:10:49;102155.04;;;6.22;86.49
44044;BME280;29709;52.396;16.796;2023-04-19T10:14:08;102161.07;;;6.27;86.27
44044;BME280;29709;52.396;16.796;2023-04-19T10:17:23;102149.16;;;6.28;85.90
44044;BME280;29709;52.396;16.796;2023-04-19T10:20:45;102150.02;;;6.28;85.92
44044;BME280;29709;52.396;16.796;2023-04-19T10:24:01;102146.97;;;6.33;86.29
44044;BME280;29709;52.396;16.796;2023-04-19T10:27:15;102149.34;;;6.25;86.45
44044;BME280;29709;52.396;16.796;2023-04-19T10:30:29;102147.19;;;6.30;86.00
44044;BME280;29709;52.396;16.796;2023-04-19T10:33:43;102135.92;;;6.34;86.47
44044;BME280;29709;52.396;16.796;2023-04-19T10:36:56;102141.09;;;6.39;86.07
44044;BME280;29709;52.396;16.796;2023-04-19T10:40:10;102146.97;;;6.33;85.46
44044;BME280;29709;52.396;16.796;2023-04-19T10:43:29;102147.61;;;6.24;86.36
44044;BME280;29709;52.396;16.796;2023-04-19T10:46:42;102138.24;;;6.28;86.51
44044;BME280;29709;52.396;16.796;2023-04-19T10:49:55;102143.05;;;6.37;86.77
44044;BME280;29709;52.396;16.796;2023-04-19T11:06:58;102130.05;;;6.28;85.07
44044;BME280;29709;52.396;16.796;2023-04-19T11:13:37;102116.39;;;6.15;85.88
44044;BME280;29709;52.396;16.796;2023-04-19T11:16:50;102125.46;;;6.16;85.71
44044;BME280;29709;52.396;16.796;2023-04-19T11:20:06;102130.04;;;6.15;86.30
44044;BME280;29709;52.396;16.796;2023-04-19T11:23:21;102120.52;;;6.21;87.05
44044;BME280;29709;52.396;16.796;2023-04-19T11:26:34;102109.50;;;6.22;86.86
44044;BME280;29709;52.396;16.796;2023-04-19T11:29:47;102118.37;;;6.26;87.28
44044;BME280;29709;52.396;16.796;2023-04-19T11:33:00;102113.21;;;6.34;87.52
44044;BME280;29709;52.396;16.796;2023-04-19T11:36:14;102105.91;;;6.47;87.79
44044;BME280;29709;52.396;16.796;2023-04-19T11:40:42;102108.06;;;6.55;87.51
44044;BME280;29709;52.396;16.796;2023-04-19T11:43:55;102105.23;;;6.69;87.53
44044;BME280;29709;52.396;16.796;2023-04-19T11:47:08;102110.55;;;6.83;87.19
44044;BME280;29709;52.396;16.796;2023-04-19T11:53:47;102106.20;;;6.81;86.32
44044;BME280;29709;52.396;16.796;2023-04-19T11:57:05;102110.55;;;6.83;86.87
44044;BME280;29709;52.396;16.796;2023-04-19T12:00:27;102116.22;;;6.93;86.45
44044;BME280;29709;52.396;16.796;2023-04-19T12:03:45;102112.18;;;6.99;86.20
44044;BME280;29709;52.396;16.796;2023-04-19T12:07:01;102114.24;;;6.95;85.22
44044;BME280;29709;52.396;16.796;2023-04-19T12:10:15;102102.91;;;6.88;84.99
44044;BME280;29709;52.396;16.796;2023-04-19T12:13:29;102103.98;;;6.86;85.29
44044;BME280;29709;52.396;16.796;2023-04-19T12:16:45;102096.66;;;6.86;85.57
44044;BME280;29709;52.396;16.796;2023-04-19T12:19:58;102101.69;;;6.92;86.11
44044;BME280;29709;52.396;16.796;2023-04-19T12:23:12;102099.34;;;7.12;86.42
44044;BME280;29709;52.396;16.796;2023-04-19T12:26:28;102097.11;;;7.17;84.93
44044;BME280;29709;52.396;16.796;2023-04-19T12:29:42;102092.07;;;7.23;85.21
44044;BME280;29709;52.396;16.796;2023-04-19T12:32:55;102096.55;;;7.24;84.94
44044;BME280;29709;52.396;16.796;2023-04-19T12:36:08;102094.05;;;7.21;84.50
44044;BME280;29709;52.396;16.796;2023-04-19T12:39:22;102099.10;;;7.15;84.89
44044;BME280;29709;52.396;16.796;2023-04-19T12:42:35;102095.62;;;7.13;85.03
44044;BME280;29709;52.396;16.796;2023-04-19T12:45:48;102088.05;;;7.16;85.27
44044;BME280;29709;52.396;16.796;2023-04-19T12:49:01;102082.88;;;7.24;85.07
44044;BME280;29709;52.396;16.796;2023-04-19T12:52:15;102079.40;;;7.22;85.25
44044;BME280;29709;52.396;16.796;2023-04-19T12:55:28;102075.79;;;7.22;85.58
44044;BME280;29709;52.396;16.796;2023-04-19T12:58:41;102078.28;;;7.25;85.90
44044;BME280;29709;52.396;16.796;2023-04-19T13:01:54;102075.55;;;7.25;85.58
44044;BME280;29709;52.396;16.796;2023-04-19T13:05:08;102068.09;;;7.27;85.41
44044;BME280;29709;52.396;16.796;2023-04-19T13:08:21;102064.03;;;7.33;85.35
44044;BME280;29709;52.396;16.796;2023-04-19T13:11:34;102061.59;;;7.41;85.38
44044;BME280;29709;52.396;16.796;2023-04-19T13:14:48;102062.34;;;7.43;84.79
44044;BME280;29709;52.396;16.796;2023-04-19T13:18:04;102059.12;;;7.49;84.89
44044;BME280;29709;52.396;16.796;2023-04-19T13:21:17;102062.63;;;7.51;84.60
44044;BME280;29709;52.396;16.796;2023-04-19T13:24:31;102066.12;;;7.53;84.33
44044;BME280;29709;52.396;16.796;2023-04-19T13:27:44;102055.39;;;7.50;84.11
44044;BME280;29709;52.396;16.796;2023-04-19T13:30:58;102057.87;;;7.42;84.01
44044;BME280;29709;52.396;16.796;2023-04-19T13:34:12;102053.39;;;7.41;84.47
44044;BME280;29709;52.396;16.796;2023-04-19T13:37:26;102057.17;;;7.51;84.29
44044;BME280;29709;52.396;16.796;2023-04-19T13:40:39;102044.36;;;7.51;83.64
44044;BME280;29709;52.396;16.796;2023-04-19T13:43:53;102042.37;;;7.53;84.03
44044;BME280;29709;52.396;16.796;2023-04-19T13:47:06;102046.11;;;7.52;84.35
44044;BME280;29709;52.396;16.796;2023-04-19T13:50:19;102043.74;;;7.59;84.38
44044;BME280;29709;52.396;16.796;2023-04-19T13:53:32;102041.79;;;7.61;84.50
44044;BME280;29709;52.396;16.796;2023-04-19T13:56:46;102037.43;;;7.70;84.43
44044;BME280;29709;52.396;16.796;2023-04-19T13:59:59;102031.88;;;7.71;84.37
44044;BME280;29709;52.396;16.796;2023-04-19T14:03:13;102025.03;;;7.77;84.51
44044;BME280;29709;52.396;16.796;2023-04-19T14:06:26;102023.53;;;7.73;84.30
44044;BME280;29709;52.396;16.796;2023-04-19T14:09:39;102025.16;;;7.75;84.40
44044;BME280;29709;52.396;16.796;2023-04-19T14:12:54;102034.23;;;7.76;84.04
44044;BME280;29709;52.396;16.796;2023-04-19T14:16:07;102024.04;;;7.78;84.47
44044;BME280;29709;52.396;16.796;2023-04-19T14:19:20;102031.90;;;7.83;84.42
44044;BME280;29709;52.396;16.796;2023-04-19T14:22:33;102031.13;;;7.80;84.46
44044;BME280;29709;52.396;16.796;2023-04-19T14:25:47;102032.77;;;7.83;84.84
44044;BME280;29709;52.396;16.796;2023-04-19T14:29:00;102039.48;;;7.90;84.11
44044;BME280;29709;52.396;16.796;2023-04-19T14:32:14;102033.66;;;7.95;84.52
44044;BME280;29709;52.396;16.796;2023-04-19T14:35:29;102034.55;;;8.06;84.46
44044;BME280;29709;52.396;16.796;2023-04-19T14:42:02;102031.82;;;8.06;84.23
44044;BME280;29709;52.396;16.796;2023-04-19T14:45:16;102029.08;;;8.06;84.12
44044;BME280;29709;52.396;16.796;2023-04-19T14:48:30;102036.42;;;8.06;84.97
44044;BME280;29709;52.396;16.796;2023-04-19T14:51:43;102039.64;;;8.11;84.78
44044;BME280;29709;52.396;16.796;2023-04-19T14:54:56;102038.80;;;8.22;84.78
44044;BME280;29709;52.396;16.796;2023-04-19T14:58:11;102037.57;;;8.26;84.70
44044;BME280;29709;52.396;16.796;2023-04-19T15:01:24;102034.09;;;8.24;84.28
44044;BME280;29709;52.396;16.796;2023-04-19T15:04:38;102039.91;;;8.19;84.62
44044;BME280;29709;52.396;16.796;2023-04-19T15:07:51;102034.70;;;8.16;84.90
44044;BME280;29709;52.396;16.796;2023-04-19T15:11:05;102033.83;;;8.16;85.12
44044;BME280;29709;52.396;16.796;2023-04-19T15:14:18;102031.22;;;8.25;84.92
44044;BME280;29709;52.396;16.796;2023-04-19T15:17:32;102033.70;;;8.28;84.62
44044;BME280;29709;52.396;16.796;2023-04-19T15:20:45;102040.80;;;8.31;84.50
44044;BME280;29709;52.396;16.796;2023-04-19T15:23:58;102041.34;;;8.36;84.30
44044;BME280;29709;52.396;16.796;2023-04-19T15:27:12;102044.44;;;8.43;84.18
44044;BME280;29709;52.396;16.796;2023-04-19T15:30:26;102050.70;;;8.45;83.74
44044;BME280;29709;52.396;16.796;2023-04-19T15:33:39;102048.70;;;8.47;83.57
44044;BME280;29709;52.396;16.796;2023-04-19T15:36:52;102045.58;;;8.51;83.69
44044;BME280;29709;52.396;16.796;2023-04-19T15:40:08;102043.48;;;8.55;83.38
44044;BME280;29709;52.396;16.796;2023-04-19T15:43:24;102041.70;;;8.54;83.66
44044;BME280;29709;52.396;16.796;2023-04-19T15:46:37;102043.09;;;8.59;83.83
44044;BME280;29709;52.396;16.796;2023-04-19T15:49:50;102042.07;;;8.72;83.48
44044;BME280;29709;52.396;16.796;2023-04-19T15:53:06;102049.68;;;8.68;83.32
44044;BME280;29709;52.396;16.796;2023-04-19T15:56:20;102049.68;;;8.68;83.88
44044;BME280;29709;52.396;16.796;2023-04-19T15:59:33;102051.03;;;8.74;83.61
44044;BME280;29709;52.396;16.796;2023-04-19T16:02:46;102048.56;;;8.71;83.95
44044;BME280;29709;52.396;16.796;2023-04-19T16:06:00;102047.42;;;8.73;84.18
44044;BME280;29709;52.396;16.796;2023-04-19T16:09:13;102050.03;;;8.75;83.79
44044;BME280;29709;52.396;16.796;2023-04-19T16:12:26;102051.43;;;8.69;83.91
44044;BME280;29709;52.396;16.796;2023-04-19T16:15:40;102046.82;;;8.58;83.98
44044;BME280;29709;52.396;16.796;2023-04-19T16:18:53;102049.44;;;8.49;84.44
44044;BME280;29709;52.396;16.796;2023-04-19T16:22:07;102050.70;;;8.56;85.23
44044;BME280;29709;52.396;16.796;2023-04-19T16:25:21;102057.27;;;8.53;85.35
44044;BME280;29709;52.396;16.796;2023-04-19T16:28:34;102050.43;;;8.48;85.35
44044;BME280;29709;52.396;16.796;2023-04-19T16:31:47;102060.66;;;8.46;85.63
44044;BME280;29709;52.396;16.796;2023-04-19T16:35:01;102059.14;;;8.42;86.98
44044;BME280;29709;52.396;16.796;2023-04-19T16:38:14;102066.00;;;8.47;86.93
44044;BME280;29709;52.396;16.796;2023-04-19T16:41:28;102066.48;;;8.63;86.81
44044;BME280;29709;52.396;16.796;2023-04-19T16:44:41;102069.86;;;8.78;86.94
44044;BME280;29709;52.396;16.796;2023-04-19T16:47:55;102069.60;;;8.81;86.71
44044;BME280;29709;52.396;16.796;2023-04-19T16:51:08;102067.37;;;8.86;86.32
44044;BME280;29709;52.396;16.796;2023-04-19T16:54:21;102064.86;;;8.83;86.03
44044;BME280;29709;52.396;16.796;2023-04-19T16:57:35;102060.77;;;8.78;85.84
44044;BME280;29709;52.396;16.796;2023-04-19T17:00:48;102067.48;;;8.74;86.52
44044;BME280;29709;52.396;16.796;2023-04-19T17:04:01;102078.09;;;8.78;86.68
44044;BME280;29709;52.396;16.796;2023-04-19T17:07:16;102067.34;;;8.75;87.49
44044;BME280;29709;52.396;16.796;2023-04-19T17:10:29;102075.34;;;8.78;86.87
44044;BME280;29709;52.396;16.796;2023-04-19T17:13:42;102075.09;;;8.81;86.58
44044;BME280;29709;52.396;16.796;2023-04-19T17:16:56;102081.30;;;8.83;86.96
44044;BME280;29709;52.396;16.796;2023-04-19T17:20:09;102084.30;;;8.80;86.70
44044;BME280;29709;52.396;16.796;2023-04-19T17:23:23;102085.18;;;8.81;87.01
44044;BME280;29709;52.396;16.796;2023-04-19T17:26:36;102084.44;;;8.79;87.05
44044;BME280;29709;52.396;16.796;2023-04-19T17:29:49;102088.53;;;8.84;86.76